sensor_id;sensor_type;location;lat;lon;timestamp;pressure;altitude;pressure_sealevel;temperature;humidity
32873;BME280;19224;52.462;16.898;2023-03-04T00:01:56;100265.88;;;3.14;100.00
32873;BME280;19224;52.462;16.898;2023-03-04T00:04:26;100261.09;;;3.07;100.00
32873;BME280;19224;52.462;16.898;2023-03-04T00:06:57;100259.69;;;3.13;100.00
32873;BME280;19224;52.462;16.898;2023-03-04T00:09:29;100250.32;;;3.16;100.00
32873;BME280;19224;52.462;16.898;2023-03-04T00:11:59;100258.67;;;3.20;100.00
32873;BME280;19224;52.462;16.898;2023-03-04T00:14:35;100265.86;;;3.15;100.00
32873;BME280;19224;52.462;16.898;2023-03-04T00:17:08;100262.00;;;3.06;100.00
32873;BME280;19224;52.462;16.898;2023-03-04T00:19:39;100257.52;;;3.11;100.00
32873;BME280;19224;52.462;16.898;2023-03-04T00:22:10;100255.92;;;3.26;100.00
32873;BME280;19224;52.462;16.898;2023-03-04T00:24:42;100256.48;;;3.18;100.00
32873;BME280;19224;52.462;16.898;2023-03-04T00:27:12;100245.84;;;3.20;100.00
32873;BME280;19224;52.462;16.898;2023-03-04T00:29:44;100247.72;;;3.13;100.00
32873;BME280;19224;52.462;16.898;2023-03-04T00:32:14;100248.93;;;3.19;100.00
32873;BME280;19224;52.462;16.898;2023-03-04T00:34:46;100252.98;;;3.16;100.00
32873;BME280;19224;52.462;16.898;2023-03-04T00:37:17;100232.48;;;3.21;100.00
32873;BME280;19224;52.462;16.898;2023-03-04T00:39:48;100237.36;;;3.23;100.00
32873;BME280;19224;52.462;16.898;2023-03-04T00:42:18;100230.85;;;3.14;100.00
32873;BME280;19224;52.462;16.898;2023-03-04T00:44:49;100225.23;;;3.06;100.00
32873;BME280;19224;52.462;16.898;2023-03-04T00:47:22;100222.72;;;3.23;100.00
32873;BME280;19224;52.462;16.898;2023-03-04T00:49:53;100221.39;;;3.23;100.00
32873;BME280;19224;52.462;16.898;2023-03-04T00:52:26;100207.61;;;3.25;100.00
32873;BME280;19224;52.462;16.898;2023-03-04T00:54:57;100205.18;;;3.10;100.00
32873;BME280;19224;52.462;16.898;2023-03-04T00:57:32;100210.36;;;3.19;100.00
32873;BME280;19224;52.462;16.898;2023-03-04T01:00:09;100197.88;;;3.23;100.00
32873;BME280;19224;52.462;16.898;2023-03-04T01:02:42;100210.27;;;3.25;100.00
32873;BME280;19224;52.462;16.898;2023-03-04T01:05:14;100198.78;;;3.23;100.00
32873;BME280;19224;52.462;16.898;2023-03-04T01:07:45;100199.28;;;3.43;100.00
32873;BME280;19224;52.462;16.898;2023-03-04T01:10:16;100192.75;;;3.37;100.00
32873;BME280;19224;52.462;16.898;2023-03-04T01:12:48;100180.08;;;3.28;100.00
32873;BME280;19224;52.462;16.898;2023-03-04T01:15:22;100168.30;;;3.41;100.00
32873;BME280;19224;52.462;16.898;2023-03-04T01:17:52;100161.45;;;3.28;100.00
32873;BME280;19224;52.462;16.898;2023-03-04T01:20:24;100150.75;;;3.29;100.00
32873;BME280;19224;52.462;16.898;2023-03-04T01:22:55;100150.84;;;3.25;100.00
32873;BME280;19224;52.462;16.898;2023-03-04T01:25:26;100157.11;;;3.22;100.00
32873;BME280;19224;52.462;16.898;2023-03-04T01:27:56;100139.69;;;3.28;100.00
32873;BME280;19224;52.462;16.898;2023-03-04T01:30:34;100135.20;;;3.30;100.00
32873;BME280;19224;52.462;16.898;2023-03-04T01:33:06;100135.70;;;3.28;100.00
32873;BME280;19224;52.462;16.898;2023-03-04T01:35:32;100109.38;;;3.13;100.00
32873;BME280;19224;52.462;16.898;2023-03-04T01:38:03;100099.29;;;3.30;100.00
32873;BME280;19224;52.462;16.898;2023-03-04T01:40:34;100111.13;;;3.14;100.00
32873;BME280;19224;52.462;16.898;2023-03-04T01:43:05;100083.03;;;3.23;100.00
32873;BME280;19224;52.462;16.898;2023-03-04T01:45:36;100087.80;;;3.28;100.00
32873;BME280;19224;52.462;16.898;2023-03-04T01:48:09;100085.20;;;3.25;100.00
32873;BME280;19224;52.462;16.898;2023-03-04T01:50:46;100090.53;;;3.25;100.00
32873;BME280;19224;52.462;16.898;2023-03-04T01:53:22;100087.94;;;3.22;100.00
32873;BME280;19224;52.462;16.898;2023-03-04T01:55:56;100071.83;;;3.28;100.00
32873;BME280;19224;52.462;16.898;2023-03-04T01:58:30;100073.72;;;3.23;100.00
32873;BME280;19224;52.462;16.898;2023-03-04T02:01:05;100071.00;;;3.26;100.00
32873;BME280;19224;52.462;16.898;2023-03-04T02:03:37;100072.81;;;3.24;100.00
32873;BME280;19224;52.462;16.898;2023-03-04T02:06:07;100063.19;;;3.17;100.00
32873;BME280;19224;52.462;16.898;2023-03-04T02:08:38;100055.03;;;3.26;100.00
32873;BME280;19224;52.462;16.898;2023-03-04T02:11:11;100064.70;;;3.30;100.00
32873;BME280;19224;52.462;16.898;2023-03-04T02:13:46;100054.61;;;3.25;100.00
32873;BME280;19224;52.462;16.898;2023-03-04T02:16:17;100069.66;;;3.26;100.00
32873;BME280;19224;52.462;16.898;2023-03-04T02:18:49;100061.61;;;3.29;100.00
32873;BME280;19224;52.462;16.898;2023-03-04T02:21:37;100050.44;;;3.34;100.00
32873;BME280;19224;52.462;16.898;2023-03-04T02:26:54;100038.22;;;3.24;100.00
32873;BME280;19224;52.462;16.898;2023-03-04T02:29:25;100037.84;;;3.20;100.00
32873;BME280;19224;52.462;16.898;2023-03-04T02:31:59;100040.15;;;3.16;100.00
32873;BME280;19224;52.462;16.898;2023-03-04T02:34:36;100041.55;;;3.13;100.00
32873;BME280;19224;52.462;16.898;2023-03-04T02:37:20;100035.73;;;3.15;100.00
32873;BME280;19224;52.462;16.898;2023-03-04T02:39:52;100039.97;;;3.25;100.00
32873;BME280;19224;52.462;16.898;2023-03-04T02:42:23;100027.11;;;3.25;100.00
32873;BME280;19224;52.462;16.898;2023-03-04T02:45:01;100019.38;;;3.13;100.00
32873;BME280;19224;52.462;16.898;2023-03-04T02:47:36;100028.58;;;3.19;100.00
32873;BME280;19224;52.462;16.898;2023-03-04T02:50:08;100028.11;;;3.19;100.00
32873;BME280;19224;52.462;16.898;2023-03-04T02:52:43;100017.89;;;3.20;100.00
32873;BME280;19224;52.462;16.898;2023-03-04T02:55:18;100032.83;;;3.27;100.00
32873;BME280;19224;52.462;16.898;2023-03-04T02:57:45;100026.25;;;3.24;100.00
32873;BME280;19224;52.462;16.898;2023-03-04T03:00:20;100017.80;;;3.25;100.00
32873;BME280;19224;52.462;16.898;2023-03-04T03:02:50;100026.58;;;3.30;100.00
32873;BME280;19224;52.462;16.898;2023-03-04T03:05:34;100026.27;;;3.23;100.00
32873;BME280;19224;52.462;16.898;2023-03-04T03:08:06;100060.42;;;3.23;100.00
32873;BME280;19224;52.462;16.898;2023-03-04T03:10:37;100027.49;;;3.29;100.00
32873;BME280;19224;52.462;16.898;2023-03-04T03:13:10;100022.77;;;3.41;100.00
32873;BME280;19224;52.462;16.898;2023-03-04T03:15:39;100031.06;;;3.28;100.00
32873;BME280;19224;52.462;16.898;2023-03-04T03:18:12;100034.66;;;3.25;100.00
32873;BME280;19224;52.462;16.898;2023-03-04T03:20:42;100025.59;;;3.13;100.00
32873;BME280;19224;52.462;16.898;2023-03-04T03:23:18;100026.76;;;3.21;100.00
32873;BME280;19224;52.462;16.898;2023-03-04T03:25:49;100026.53;;;3.09;100.00
32873;BME280;19224;52.462;16.898;2023-03-04T03:28:21;100025.11;;;3.14;100.00
32873;BME280;19224;52.462;16.898;2023-03-04T03:30:56;100027.93;;;3.28;100.00
32873;BME280;19224;52.462;16.898;2023-03-04T03:33:30;100017.13;;;3.14;100.00
32873;BME280;19224;52.462;16.898;2023-03-04T03:36:00;100023.52;;;3.05;100.00
32873;BME280;19224;52.462;16.898;2023-03-04T03:38:31;100022.19;;;3.27;100.00
32873;BME280;19224;52.462;16.898;2023-03-04T03:41:01;100024.78;;;3.08;100.00
32873;BME280;19224;52.462;16.898;2023-03-04T03:43:36;100033.59;;;3.10;100.00
32873;BME280;19224;52.462;16.898;2023-03-04T03:46:14;100023.10;;;3.26;100.00
32873;BME280;19224;52.462;16.898;2023-03-04T03:48:40;100025.95;;;3.16;100.00
32873;BME280;19224;52.462;16.898;2023-03-04T03:51:11;100019.51;;;3.07;100.00
32873;BME280;19224;52.462;16.898;2023-03-04T03:53:41;100027.48;;;3.07;100.00
32873;BME280;19224;52.462;16.898;2023-03-04T03:56:12;100036.72;;;3.11;100.00
32873;BME280;19224;52.462;16.898;2023-03-04T03:58:42;100014.64;;;3.05;100.00
32873;BME280;19224;52.462;16.898;2023-03-04T04:01:18;100016.45;;;3.04;100.00
32873;BME280;19224;52.462;16.898;2023-03-04T04:03:50;100037.16;;;3.11;100.00
32873;BME280;19224;52.462;16.898;2023-03-04T04:06:25;100024.94;;;3.23;100.00
32873;BME280;19224;52.462;16.898;2023-03-04T04:08:55;100020.53;;;3.22;100.00
32873;BME280;19224;52.462;16.898;2023-03-04T04:11:26;100020.02;;;3.03;100.00
32873;BME280;19224;52.462;16.898;2023-03-04T04:13:57;100027.19;;;2.98;100.00
32873;BME280;19224;52.462;16.898;2023-03-04T04:16:27;100017.52;;;2.94;100.00
32873;BME280;19224;52.462;16.898;2023-03-04T04:18:58;100026.24;;;3.02;100.00
32873;BME280;19224;52.462;16.898;2023-03-04T04:21:29;100023.09;;;3.04;100.00
32873;BME280;19224;52.462;16.898;2023-03-04T04:23:59;100033.73;;;3.04;100.00
32873;BME280;19224;52.462;16.898;2023-03-04T04:26:30;100024.00;;;3.03;100.00
32873;BME280;19224;52.462;16.898;2023-03-04T04:29:02;100017.84;;;3.01;100.00
32873;BME280;19224;52.462;16.898;2023-03-04T04:31:33;100007.88;;;3.12;100.00
32873;BME280;19224;52.462;16.898;2023-03-04T04:34:09;100014.14;;;3.08;100.00
32873;BME280;19224;52.462;16.898;2023-03-04T04:36:39;100003.63;;;3.24;100.00
32873;BME280;19224;52.462;16.898;2023-03-04T04:39:17;99991.68;;;3.23;100.00
32873;BME280;19224;52.462;16.898;2023-03-04T04:41:53;99995.27;;;3.20;100.00
32873;BME280;19224;52.462;16.898;2023-03-04T04:44:23;99987.78;;;3.18;100.00
32873;BME280;19224;52.462;16.898;2023-03-04T04:46:54;100006.63;;;3.30;100.00
32873;BME280;19224;52.462;16.898;2023-03-04T04:49:31;99988.81;;;3.33;100.00
32873;BME280;19224;52.462;16.898;2023-03-04T04:52:02;99981.34;;;3.30;100.00
32873;BME280;19224;52.462;16.898;2023-03-04T04:54:29;99985.85;;;3.26;100.00
32873;BME280;19224;52.462;16.898;2023-03-04T04:57:00;99988.02;;;3.28;100.00
32873;BME280;19224;52.462;16.898;2023-03-04T04:59:38;99972.64;;;3.22;100.00
32873;BME280;19224;52.462;16.898;2023-03-04T05:02:04;99969.81;;;3.29;100.00
32873;BME280;19224;52.462;16.898;2023-03-04T05:04:35;99968.98;;;3.27;100.00
32873;BME280;19224;52.462;16.898;2023-03-04T05:07:09;99963.34;;;3.20;100.00
32873;BME280;19224;52.462;16.898;2023-03-04T05:09:40;99961.06;;;3.24;100.00
32873;BME280;19224;52.462;16.898;2023-03-04T05:12:10;99959.17;;;3.29;100.00
32873;BME280;19224;52.462;16.898;2023-03-04T05:14:42;99958.90;;;3.22;100.00
32873;BME280;19224;52.462;16.898;2023-03-04T05:17:12;99956.67;;;3.22;100.00
32873;BME280;19224;52.462;16.898;2023-03-04T05:19:43;99952.52;;;3.29;100.00
32873;BME280;19224;52.462;16.898;2023-03-04T05:22:17;99939.82;;;3.21;100.00
32873;BME280;19224;52.462;16.898;2023-03-04T05:24:48;99951.28;;;3.25;100.00
32873;BME280;19224;52.462;16.898;2023-03-04T05:27:19;99945.01;;;3.29;100.00
32873;BME280;19224;52.462;16.898;2023-03-04T05:29:50;99949.86;;;3.29;100.00
32873;BME280;19224;52.462;16.898;2023-03-04T05:32:23;99955.75;;;3.43;100.00
32873;BME280;19224;52.462;16.898;2023-03-04T05:34:54;99951.91;;;3.37;100.00
32873;BME280;19224;52.462;16.898;2023-03-04T05:37:32;99947.20;;;3.29;100.00
32873;BME280;19224;52.462;16.898;2023-03-04T05:40:05;99982.28;;;3.27;100.00
32873;BME280;19224;52.462;16.898;2023-03-04T05:42:56;99955.50;;;3.35;100.00
32873;BME280;19224;52.462;16.898;2023-03-04T05:45:29;99955.08;;;3.34;100.00
32873;BME280;19224;52.462;16.898;2023-03-04T05:48:00;99954.16;;;3.36;100.00
32873;BME280;19224;52.462;16.898;2023-03-04T05:50:35;99951.11;;;3.32;100.00
32873;BME280;19224;52.462;16.898;2023-03-04T05:53:09;99953.58;;;3.22;100.00
32873;BME280;19224;52.462;16.898;2023-03-04T05:55:44;99948.50;;;3.31;100.00
32873;BME280;19224;52.462;16.898;2023-03-04T05:58:16;99946.61;;;3.36;100.00
32873;BME280;19224;52.462;16.898;2023-03-04T06:00:53;99945.86;;;3.29;100.00
32873;BME280;19224;52.462;16.898;2023-03-04T06:03:30;99949.86;;;3.29;100.00
32873;BME280;19224;52.462;16.898;2023-03-04T06:05:59;99951.33;;;3.23;100.00
32873;BME280;19224;52.462;16.898;2023-03-04T06:08:34;99937.46;;;3.28;100.00
32873;BME280;19224;52.462;16.898;2023-03-04T06:11:07;99940.94;;;3.32;100.00
32873;BME280;19224;52.462;16.898;2023-03-04T06:13:38;99948.34;;;3.38;100.00
32873;BME280;19224;52.462;16.898;2023-03-04T06:16:09;99941.27;;;3.37;100.00
32873;BME280;19224;52.462;16.898;2023-03-04T06:18:40;99942.20;;;3.35;100.00
32873;BME280;19224;52.462;16.898;2023-03-04T06:21:10;99947.34;;;3.42;100.00
32873;BME280;19224;52.462;16.898;2023-03-04T06:23:44;99949.66;;;3.38;100.00
32873;BME280;19224;52.462;16.898;2023-03-04T06:26:15;99938.87;;;3.44;100.00
32873;BME280;19224;52.462;16.898;2023-03-04T06:28:50;99933.03;;;3.48;100.00
32873;BME280;19224;52.462;16.898;2023-03-04T06:31:21;99948.48;;;3.51;100.00
32873;BME280;19224;52.462;16.898;2023-03-04T06:33:54;99946.61;;;3.56;100.00
32873;BME280;19224;52.462;16.898;2023-03-04T06:36:25;99948.46;;;3.53;100.00
32873;BME280;19224;52.462;16.898;2023-03-04T06:39:03;99947.89;;;3.58;100.00
32873;BME280;19224;52.462;16.898;2023-03-04T06:41:54;99945.58;;;3.43;100.00
32873;BME280;19224;52.462;16.898;2023-03-04T06:44:28;99942.86;;;3.44;100.00
32873;BME280;19224;52.462;16.898;2023-03-04T06:47:06;99945.23;;;3.39;100.00
32873;BME280;19224;52.462;16.898;2023-03-04T06:49:38;99961.35;;;3.52;100.00
32873;BME280;19224;52.462;16.898;2023-03-04T06:52:10;99945.06;;;3.46;100.00
32873;BME280;19224;52.462;16.898;2023-03-04T06:54:41;99958.63;;;3.53;100.00
32873;BME280;19224;52.462;16.898;2023-03-04T06:57:13;99943.48;;;3.57;100.00
32873;BME280;19224;52.462;16.898;2023-03-04T06:59:44;99948.82;;;3.55;100.00
32873;BME280;19224;52.462;16.898;2023-03-04T07:02:18;99931.58;;;3.54;100.00
32873;BME280;19224;52.462;16.898;2023-03-04T07:04:48;99941.55;;;3.63;100.00
32873;BME280;19224;52.462;16.898;2023-03-04T07:07:22;99926.26;;;3.73;100.00
32873;BME280;19224;52.462;16.898;2023-03-04T07:10:01;99930.48;;;3.81;100.00
32873;BME280;19224;52.462;16.898;2023-03-04T07:12:32;99940.34;;;3.76;100.00
32873;BME280;19224;52.462;16.898;2023-03-04T07:15:07;99936.77;;;3.77;100.00
32873;BME280;19224;52.462;16.898;2023-03-04T07:17:38;99951.79;;;3.81;100.00
32873;BME280;19224;52.462;16.898;2023-03-04T07:20:16;99948.84;;;3.93;100.00
32873;BME280;19224;52.462;16.898;2023-03-04T07:22:48;99941.55;;;3.82;100.00
32873;BME280;19224;52.462;16.898;2023-03-04T07:25:18;99945.05;;;3.84;100.00
32873;BME280;19224;52.462;16.898;2023-03-04T07:27:54;99952.50;;;3.89;100.00
32873;BME280;19224;52.462;16.898;2023-03-04T07:30:25;99941.34;;;3.91;100.00
32873;BME280;19224;52.462;16.898;2023-03-04T07:32:57;99945.45;;;4.04;100.00
32873;BME280;19224;52.462;16.898;2023-03-04T07:35:32;99943.53;;;3.92;100.00
32873;BME280;19224;52.462;16.898;2023-03-04T07:38:02;99945.25;;;3.94;100.00
32873;BME280;19224;52.462;16.898;2023-03-04T07:40:33;99939.66;;;4.05;100.00
32873;BME280;19224;52.462;16.898;2023-03-04T07:43:06;99937.12;;;4.00;100.00
32873;BME280;19224;52.462;16.898;2023-03-04T07:45:37;99938.93;;;3.98;100.00
32873;BME280;19224;52.462;16.898;2023-03-04T07:48:13;99940.45;;;4.08;100.00
32873;BME280;19224;52.462;16.898;2023-03-04T07:50:44;99939.95;;;4.10;100.00
32873;BME280;19224;52.462;16.898;2023-03-04T07:53:18;99935.91;;;4.13;100.00
32873;BME280;19224;52.462;16.898;2023-03-04T07:55:51;99925.80;;;4.08;100.00
32873;BME280;19224;52.462;16.898;2023-03-04T07:58:30;99930.50;;;4.16;100.00
32873;BME280;19224;52.462;16.898;2023-03-04T08:00:56;99931.39;;;4.17;100.00
32873;BME280;19224;52.462;16.898;2023-03-04T08:03:31;99927.00;;;4.14;100.00
32873;BME280;19224;52.462;16.898;2023-03-04T08:06:06;99947.09;;;4.27;100.00
32873;BME280;19224;52.462;16.898;2023-03-04T08:08:37;99923.70;;;4.22;100.00
32873;BME280;19224;52.462;16.898;2023-03-04T08:11:15;99916.86;;;4.28;100.00
32873;BME280;19224;52.462;16.898;2023-03-04T08:13:47;99927.43;;;4.31;100.00
32873;BME280;19224;52.462;16.898;2023-03-04T08:16:21;99918.36;;;4.22;100.00
32873;BME280;19224;52.462;16.898;2023-03-04T08:18:57;99922.19;;;4.28;100.00
32873;BME280;19224;52.462;16.898;2023-03-04T08:21:29;99927.38;;;4.34;100.00
32873;BME280;19224;52.462;16.898;2023-03-04T08:24:02;99920.00;;;4.44;100.00
32873;BME280;19224;52.462;16.898;2023-03-04T08:26:39;99924.45;;;4.43;100.00
32873;BME280;19224;52.462;16.898;2023-03-04T08:29:16;99927.59;;;4.43;100.00
32873;BME280;19224;52.462;16.898;2023-03-04T08:31:53;99912.30;;;4.49;100.00
32873;BME280;19224;52.462;16.898;2023-03-04T08:34:27;99917.45;;;4.39;100.00
32873;BME280;19224;52.462;16.898;2023-03-04T08:37:02;99919.68;;;4.40;100.00
32873;BME280;19224;52.462;16.898;2023-03-04T08:39:33;99925.25;;;4.47;100.00
32873;BME280;19224;52.462;16.898;2023-03-04T08:42:06;99927.05;;;4.46;100.00
32873;BME280;19224;52.462;16.898;2023-03-04T08:44:36;99923.23;;;4.56;100.00
32873;BME280;19224;52.462;16.898;2023-03-04T08:47:07;99919.89;;;4.48;100.00
32873;BME280;19224;52.462;16.898;2023-03-04T08:49:45;99919.27;;;4.55;100.00
32873;BME280;19224;52.462;16.898;2023-03-04T08:52:16;99911.70;;;4.54;100.00
32873;BME280;19224;52.462;16.898;2023-03-04T08:54:42;99932.92;;;4.58;100.00
32873;BME280;19224;52.462;16.898;2023-03-04T08:57:17;99915.84;;;4.65;100.00
32873;BME280;19224;52.462;16.898;2023-03-04T08:59:47;99908.05;;;4.74;100.00
32873;BME280;19224;52.462;16.898;2023-03-04T09:02:18;99908.52;;;4.73;100.00
32873;BME280;19224;52.462;16.898;2023-03-04T09:04:51;99913.06;;;4.70;100.00
32873;BME280;19224;52.462;16.898;2023-03-04T09:07:23;99920.55;;;4.72;100.00
32873;BME280;19224;52.462;16.898;2023-03-04T09:09:54;99909.56;;;4.68;100.00
32873;BME280;19224;52.462;16.898;2023-03-04T09:12:25;99909.80;;;4.75;100.00
32873;BME280;19224;52.462;16.898;2023-03-04T09:14:55;99915.48;;;4.79;100.00
32873;BME280;19224;52.462;16.898;2023-03-04T09:17:28;99934.31;;;4.89;100.00
32873;BME280;19224;52.462;16.898;2023-03-04T09:20:00;99907.95;;;4.77;100.00
32873;BME280;19224;52.462;16.898;2023-03-04T09:22:31;99903.95;;;4.77;100.00
32873;BME280;19224;52.462;16.898;2023-03-04T09:25:02;99912.72;;;4.82;100.00
32873;BME280;19224;52.462;16.898;2023-03-04T09:27:33;99911.77;;;4.99;100.00
32873;BME280;19224;52.462;16.898;2023-03-04T09:30:09;99902.87;;;5.00;100.00
32873;BME280;19224;52.462;16.898;2023-03-04T09:32:40;99906.78;;;5.03;100.00
32873;BME280;19224;52.462;16.898;2023-03-04T09:35:10;99907.75;;;5.15;100.00
32873;BME280;19224;52.462;16.898;2023-03-04T09:37:41;99905.66;;;5.10;100.00
32873;BME280;19224;52.462;16.898;2023-03-04T09:40:22;99912.27;;;5.13;100.00
32873;BME280;19224;52.462;16.898;2023-03-04T09:42:57;99897.11;;;5.13;100.00
32873;BME280;19224;52.462;16.898;2023-03-04T09:45:37;99887.37;;;5.27;100.00
32873;BME280;19224;52.462;16.898;2023-03-04T09:48:10;99895.00;;;5.39;100.00
32873;BME280;19224;52.462;16.898;2023-03-04T09:50:48;99907.33;;;5.43;100.00
32873;BME280;19224;52.462;16.898;2023-03-04T09:53:39;99900.65;;;5.43;100.00
32873;BME280;19224;52.462;16.898;2023-03-04T09:56:09;99896.47;;;5.34;100.00
32873;BME280;19224;52.462;16.898;2023-03-04T09:59:27;99891.38;;;5.27;100.00
32873;BME280;19224;52.462;16.898;2023-03-04T10:01:58;99895.06;;;5.23;100.00
32873;BME280;19224;52.462;16.898;2023-03-04T10:04:48;99886.75;;;5.32;100.00
32873;BME280;19224;52.462;16.898;2023-03-04T10:07:22;99890.76;;;5.32;100.00
32873;BME280;19224;52.462;16.898;2023-03-04T10:12:33;99885.31;;;5.49;100.00
32873;BME280;19224;52.462;16.898;2023-03-04T10:15:27;99887.23;;;5.46;100.00
32873;BME280;19224;52.462;16.898;2023-03-04T10:18:21;99896.23;;;5.56;100.00
32873;BME280;19224;52.462;16.898;2023-03-04T10:20:48;99875.95;;;5.64;100.00
32873;BME280;19224;52.462;16.898;2023-03-04T10:23:24;99880.05;;;5.48;100.00
32873;BME280;19224;52.462;16.898;2023-03-04T10:25:56;99867.38;;;5.54;100.00
32873;BME280;19224;52.462;16.898;2023-03-04T10:28:34;99866.41;;;5.57;100.00
32873;BME280;19224;52.462;16.898;2023-03-04T10:34:04;99857.41;;;5.59;100.00
32873;BME280;19224;52.462;16.898;2023-03-04T10:37:02;99853.48;;;5.71;100.00
32873;BME280;19224;52.462;16.898;2023-03-04T10:39:41;99873.15;;;5.83;100.00
32873;BME280;19224;52.462;16.898;2023-03-04T10:44:59;99870.29;;;6.02;100.00
32873;BME280;19224;52.462;16.898;2023-03-04T10:47:31;99866.28;;;5.89;100.00
32873;BME280;19224;52.462;16.898;2023-03-04T10:50:06;99856.48;;;5.88;100.00
32873;BME280;19224;52.462;16.898;2023-03-04T10:52:45;99850.06;;;5.80;100.00
32873;BME280;19224;52.462;16.898;2023-03-04T10:55:25;99867.55;;;5.76;100.00
32873;BME280;19224;52.462;16.898;2023-03-04T10:58:06;99856.52;;;6.01;100.00
32873;BME280;19224;52.462;16.898;2023-03-04T11:00:39;99834.09;;;6.05;100.00
32873;BME280;19224;52.462;16.898;2023-03-04T11:03:32;99838.52;;;5.93;100.00
32873;BME280;19224;52.462;16.898;2023-03-04T11:06:21;99842.63;;;6.16;100.00
32873;BME280;19224;52.462;16.898;2023-03-04T11:09:01;99825.13;;;6.19;100.00
32873;BME280;19224;52.462;16.898;2023-03-04T11:11:42;99846.62;;;6.29;100.00
32873;BME280;19224;52.462;16.898;2023-03-04T11:14:26;99833.13;;;6.32;100.00
32873;BME280;19224;52.462;16.898;2023-03-04T11:20:01;99840.57;;;6.24;100.00
32873;BME280;19224;52.462;16.898;2023-03-04T11:22:34;99836.75;;;6.18;100.00
32873;BME280;19224;52.462;16.898;2023-03-04T11:25:20;99830.75;;;6.49;100.00
32873;BME280;19224;52.462;16.898;2023-03-04T11:27:55;99824.75;;;6.42;100.00
32873;BME280;19224;52.462;16.898;2023-03-04T11:30:52;99834.30;;;6.25;100.00
32873;BME280;19224;52.462;16.898;2023-03-04T11:33:35;99840.74;;;6.31;100.00
32873;BME280;19224;52.462;16.898;2023-03-04T11:36:28;99832.05;;;6.13;100.00
32873;BME280;19224;52.462;16.898;2023-03-04T11:38:58;99835.96;;;6.27;100.00
32873;BME280;19224;52.462;16.898;2023-03-04T11:41:42;99832.98;;;6.61;100.00
32873;BME280;19224;52.462;16.898;2023-03-04T11:44:10;99839.22;;;6.61;100.00
32873;BME280;19224;52.462;16.898;2023-03-04T11:47:06;99835.01;;;6.66;100.00
32873;BME280;19224;52.462;16.898;2023-03-04T11:50:21;99831.92;;;6.65;100.00
32873;BME280;19224;52.462;16.898;2023-03-04T11:53:25;99829.49;;;6.59;100.00
32873;BME280;19224;52.462;16.898;2023-03-04T11:56:57;99834.59;;;6.65;100.00
32873;BME280;19224;52.462;16.898;2023-03-04T12:07:45;99829.16;;;6.68;100.00
32873;BME280;19224;52.462;16.898;2023-03-04T12:10:43;99832.35;;;6.89;100.00
32873;BME280;19224;52.462;16.898;2023-03-04T12:29:17;99821.89;;;7.05;100.00
32873;BME280;19224;52.462;16.898;2023-03-04T12:31:54;99818.80;;;6.93;100.00
32873;BME280;19224;52.462;16.898;2023-03-04T12:34:33;99820.15;;;6.82;100.00
32873;BME280;19224;52.462;16.898;2023-03-04T12:40:25;99839.70;;;6.72;100.00
32873;BME280;19224;52.462;16.898;2023-03-04T12:43:26;99825.64;;;6.54;100.00
32873;BME280;19224;52.462;16.898;2023-03-04T12:46:19;99835.84;;;6.43;100.00
32873;BME280;19224;52.462;16.898;2023-03-04T12:54:44;99837.25;;;6.29;100.00
32873;BME280;19224;52.462;16.898;2023-03-04T12:57:25;99849.33;;;6.27;100.00
32873;BME280;19224;52.462;16.898;2023-03-04T13:00:50;99916.95;;;5.63;100.00
32873;BME280;19224;52.462;16.898;2023-03-04T13:06:41;99884.97;;;4.89;100.00
32873;BME280;19224;52.462;16.898;2023-03-04T13:09:47;99885.16;;;4.81;100.00
32873;BME280;19224;52.462;16.898;2023-03-04T13:12:22;99889.73;;;4.78;100.00
32873;BME280;19224;52.462;16.898;2023-03-04T13:18:37;99887.76;;;4.84;100.00
32873;BME280;19224;52.462;16.898;2023-03-04T13:20:38;99890.80;;;4.71;100.00
32873;BME280;19224;52.462;16.898;2023-03-04T13:28:34;99885.95;;;4.85;100.00
32873;BME280;19224;52.462;16.898;2023-03-04T13:31:17;99892.77;;;4.95;100.00
32873;BME280;19224;52.462;16.898;2023-03-04T13:33:53;99892.77;;;4.95;100.00
32873;BME280;19224;52.462;16.898;2023-03-04T13:36:52;99903.64;;;4.89;100.00
32873;BME280;19224;52.462;16.898;2023-03-04T13:39:26;99893.44;;;4.87;100.00
32873;BME280;19224;52.462;16.898;2023-03-04T13:41:59;99885.09;;;4.84;100.00
32873;BME280;19224;52.462;16.898;2023-03-04T13:47:20;99903.86;;;4.96;100.00
32873;BME280;19224;52.462;16.898;2023-03-04T13:53:01;99905.31;;;5.07;100.00
32873;BME280;19224;52.462;16.898;2023-03-04T13:55:37;99907.86;;;4.96;100.00
32873;BME280;19224;52.462;16.898;2023-03-04T13:58:25;99915.70;;;4.86;100.00
32873;BME280;19224;52.462;16.898;2023-03-04T14:00:56;99911.39;;;4.82;100.00
32873;BME280;19224;52.462;16.898;2023-03-04T14:03:33;99906.84;;;4.85;100.00
32873;BME280;19224;52.462;16.898;2023-03-04T14:06:25;99910.27;;;4.74;100.00
32873;BME280;19224;52.462;16.898;2023-03-04T14:08:56;99904.40;;;4.78;100.00
32873;BME280;19224;52.462;16.898;2023-03-04T14:11:42;99906.30;;;4.89;100.00
32873;BME280;19224;52.462;16.898;2023-03-04T14:14:20;99904.34;;;4.95;100.00
32873;BME280;19224;52.462;16.898;2023-03-04T14:17:04;99910.44;;;4.84;100.00
32873;BME280;19224;52.462;16.898;2023-03-04T14:19:44;99911.06;;;4.92;100.00
32873;BME280;19224;52.462;16.898;2023-03-04T14:22:35;99909.80;;;4.91;100.00
32873;BME280;19224;52.462;16.898;2023-03-04T14:25:26;99910.46;;;4.83;100.00
32873;BME280;19224;52.462;16.898;2023-03-04T14:28:12;99902.08;;;4.80;100.00
32873;BME280;19224;52.462;16.898;2023-03-04T14:30:56;99906.33;;;4.71;100.00
32873;BME280;19224;52.462;16.898;2023-03-04T14:33:31;99914.22;;;4.60;100.00